Alguazas, Spain
Current Conditions -  °F | °C
As of 1:00 PM on Friday 19 Dec 2014 (Local Time) from LELC Reporting Station
Clear Clear  
Wind Chill: 64°   Ceiling: Unl
Heat Index: 64°   Visibility: 6mi
Dew Point: 54°   Wind: 1mph
Humidity: 68%   Direction: NA
Pressure: 30.36"   Gusts: NA
Location:  38.05°N, 1.25°W
Report Text: LELC 191200Z VRB01KT CAVOK 18/12 Q1028 NOSIG
Loading
Personal Weather Stations






























Interactive Weather Map New forecast layout! Learn more

10-Day Weather Forecast

Advertisements
Track Severe Weather on mobile